Race Results for
MSC #5, Wildflower Rush
Crested Butte, CO
(Event Information)
Cross Country on 06/25/2011

Note: Ranking points are NOT upgrade points. An explanation of ranking points can be found here.


Men - Wildcat

 Place Points NameCity, StateTime USAC #BibTeam
1Scott Simmons   3:49:15  916 
2Peter Gaston   3:51:34  841 Strafe Outerwear
3Gene Sherman   4:06:09  866 Polar Lites
4Thane Wright   4:11:33  653 Voodoo Cycles
5Rob Russell   4:12:38  863 Trek / Honey Stinger
6J Brent Hanlin   4:13:13  1088 
7481.82Charles Knoll   Denver4:16:50 19476  1106 Bikeparts.com
8Robb Parsons   4:18:03  860 LiveTrainRace.com
9Antonio Gallegos   4:20:10  650 Rocky Mounts-Izze
10Todd Shaffer   4:20:21  570 
11488.90ian metcalf   Aspen, CO4:22:00 349888  688 
12490.67Jeremy Wolf   Carbondale, CO4:23:17 314264  925 
13Henry Horrocks   4:23:45  785 Schwalbe Tires
14494.21Jonathan Forbes   Carbondale, CO4:26:01 349824  548 First Descents
15Justin Reiter   4:27:35  1103 
16497.75Jeffrey Rank   Breckenridge, CO4:29:32 265907  664 Breck Velo
17Justin Varaljay   4:30:04  1118 BFP Crew
18Karl Krupp   4:31:33  923 where's piper
19Allan Arnason   4:31:44  1112 
20Mike McAuley   4:32:02  686 
21Jay Rush   4:32:21  892 Yeti's Grind
22Michael Martin   4:32:41  1155 2nd Ave Sports
23510.14Peter Pierpont   Breckenridge, CO4:32:59 104042  1091 Summit Velo
24Evan Ross   4:36:49  1052 
25Glenn Druery   4:38:00  765 
26Bryan Smalley   4:38:02  1036 Rocky Mountain Racing
27517.22Phil Hantel   Scottsdale, AZ4:41:07 15020  846 
28Aaron Huckstep   4:43:09  1114 Brick Oven/CB Builders
29520.76Greg Koeka   Boulder, CO4:45:53 303077  553 GS Boulder/Trek
30Ty Brookhart   4:47:49  561 
31524.30Kyle Boschen   Denver, CO4:48:04 212845  564 High Peaks Masters
32Brett Donelson   4:49:07  1105 
33Jeff Powell   4:49:39  586 
34529.61Clayton Chiles   State College, PA4:52:36 174913  678 Penn State Cycling
35531.38Brian Huggins   Parker, CO5:00:25 275490  712 Primal Racing p/b 1st Bank
36Dana Allen   5:02:40  1115 Brick Oven/Crested Butte Builders
37Michael Hebert   5:05:22  670 Pro Cycling
38Michael English   5:07:31  554 
39Bill Boughton   5:08:51  755 Ajax Bike & Sport
40Evan Soard   5:08:53  674 steamboat velo
41542.00Scott Orr   Dillon, CO5:11:04 26819  930 Summit Velo
42Jim Morrison   5:11:50  1063 Sideways Cycles
43Cosmo Langsfeld   5:12:00  672 
44Steve Juneau   5:14:48  567 
45Kenneth Ulrich   5:15:51  610 
46550.85Ryan Stranahan   Littleton, CO5:16:02 352922  931 
47Ron Stein   5:17:21  1098 Just Me!
48Jam Price   5:17:22  1064 1 F Gear
49Thomas Corson   5:18:13  551 
50Dan Camp   5:21:27  655 
51Darren Clifford   5:28:12  1077 Breakaway Cycles
52Eric Schweikardt   5:29:16  731 
53563.24Randy Charrette   Ridgway, CO5:30:53 69784  907 Peak To Peak Bicycles
54Ryan Cowan   5:39:26  552 
55Ryan Whitten   5:39:36  744 
56John Belkin   5:41:54  595 
57Scott Berry   5:43:32  754 
58Tim Skafidas   5:44:55  1069 
59Bill Jackson   5:45:08  596 
60Matt Wester   5:46:50  588 
61Adam Wheeler   5:46:59  743 Buzzard Brothers
62Bill Bottom   5:50:40  569 Peloton Cycles Fort Collins
63580.94Mason Rickard   Denver, CO6:05:56 29793  918 
64Mick Waldspurger   6:19:08  605 
65Matthew Watson   6:48:35  574 
66Dave Sigurslid   7:03:18  734 
67Taylor Tinsley   7:47:00  589 
68Mark Welsh   8:02:49  592 
DNSJason Henkhaus   DNS  556 
DNSMarcel Medved   DNS  578 
DNSMike Kriz   DNS  606 
DNSJeremy Brodhead   DNS  621 
DNSTim Forbert   Bailey, CODNS 288629  770 Team Evergreen Racing
DNSJohn Linck   DNS  795 

Men - Singlespeed

 Place Points NameCity, StateTime USAC #BibTeam
1Vince Anderson   4:02:15  584 Cloven Hoofed Sharks
2Tommy Githens   4:04:26  1109 CB Brick Oven
3Michael Githens   4:15:34  1108 Form Fitness
4Courtney Gregory   4:26:57  779 Streetswell Longboards
5497.12Colin McKernan   Arvada, CO4:32:25 153352  798 Adventure Fit
6514.64Anthony Mannina   Boulder, CO4:32:56 22387  1087 Rocky Mounts - Izze Racing
7532.16jonathan williams   Taos, NM4:37:54 299793  1062 F.I. Taos
8549.68William "Tyson" Hausdoerffer   Shorewood, WI4:42:15 15440  562 Team Wisconsin/KS Energy Services
9Anton Selzer   5:06:55  984 
10Mike Oroszi   5:44:46  577 
DNSDoug Dupuie   Denver, CODNS 76455  766 COMotion Sports / Yeti
DNSRobin Guillaume   DNS  844 

Men - CAT 3 - 1-14

 Place Points NameCity, StateTime USAC #BibTeam
1484.66Jake Yackle   Reno, NV53:01.73 307192  630 Panaracer/Osprey/Canari
2489.68Eric Brunner   Boulder, CO53:03.05 298963  698 Boulder Junior Cycling
3494.70Keenan DesPlanques   Durango, CO54:47.34 294635  835 Durango DEVO
4499.72Adin Baird   Denver, CO54:48.48 302831  909 Co-Motion Sports
5504.74Ivo Erben   Boulder, CO56:40.78 297519  900 SMBA
6509.76Ross Ellwood   Boulder, CO57:56.21 298726  978 
7Koby Vargas   59:05.70  820 SSWSC
8519.80Trevor von Boeck   Colorado Springs, CO59:15.85 348604  821 Bandwagon Racing
9Jack Ellmer   59:30.85  1142 Ciclismo
10529.84Derek Pansze   Durango, CO59:31.84 295484  926 Durango Devo
11534.86Ryan Joyner   Monument, CO1:03:48 317648  891 Front Rangers Colorado Springs
12539.88Chase Willie   Longmont, CO1:04:21 298487  876 SMBA
13544.90Nolan Brunner   Boulder, CO1:04:47 318530  699 Boulder Junior Cycling
14Elijah Vargas   1:07:35  819 SSWSC
15554.94Devin Feilen   Durango, CO1:08:17 350046  704 Durango Devo
16559.96Cassidy Bailey   Lyons, CO1:11:24 289005  963 BJC
17564.98Kaden Sites   Salida, CO1:14:47 348594  1065 RPM/YETI
18570.00Brendan Collins   Dillon, CO1:16:01 321428  760 
19Bridger Schroer   1:19:09  865 SMBA
20William G Berger   1:23:57  753 Durango Devo
21585.06Chase Jamieson   La Center, WA1:36:11 295632  714 Yeti Cycles
22590.08Nye Yackle   Reno, NV1:43:27 307201  631 Panaracer/Osprey/Canari
DNSMalcolm Penny-Kosser   Boulder, CODNS 347778  636 Yeti/SMBA

Men - CAT 3 - 15-18

 Place Points NameCity, StateTime USAC #BibTeam
1540.00Garrett Gerchar   Boulder, CO51:31.02 344890  842 Tokyo Joes
2547.14Kurtis Barth   Boulder, CO52:10.07 317448  654 Tokyo Joes
3554.28Jacob CarterGibb   Boulder, CO1:02:06 350018  759 Tokyo Joes
4561.42Hunter Reehoorn   Colorado Springs, CO1:02:45 248127  651 Front Rangers Cycling Club-Colo Spgs
5568.56Wyatt Svarczkopf   Boulder, CO1:03:06 344134  581 Boulder Junior Cycling/Tokyo Joe's
6575.70Andrew Cunningham   Grand Junction, CO1:04:10 338210  680 Durango Devo
7Chase Seivert   1:14:18  898 Durango Devo
8589.98Toler Kastengren   Boulder, CO1:14:55 352390  658 Boulder Junior Cycling

Men - CAT 3 - 19-29

 Place Points NameCity, StateTime USAC #BibTeam
1Scott Polly   1:09:31  512 One Ghost Industries

Men - CAT 3 - 30-39

 Place Points NameCity, StateTime USAC #BibTeam
1Paul Franco   59:02.78  623 ROTOR Components
2Fred Newcomer   1:03:12  960 Summit Velo
3Daniel Bombac   1:05:59  1093 Summit Velo
DNSmark zitelli   Aspen, CODNS 346622  558 

Men - CAT 3 - 40-99

 Place Points NameCity, StateTime USAC #BibTeam
1Todd Huck   59:48.14  711 
2556.67Robert Davoust   Durango, CO1:06:25 350316  947 
3573.34Scott Swandal   Colorado Springs, CO1:19:45 244601  505 One Ghost Industries
4590.01Bob Franklin   Taos, NM1:24:35 259763  773 Team F.I.Taos
DNSKevan McCallum   Superior, CODNS 154098  687 Club Treads

Men - CAT 2 - 15-18

 Place Points NameCity, StateTime USAC #BibTeam
1405.85Matthew DeBalski   Colorado Springs, CO1:34:21 317262  701 Front Rangers
2415.22Kyle Bloesser   Colorado Springs, CO1:44:01 293885  676 Pro Cycling/Smith Optics
3424.59Max Neuman   Boulder, CO1:45:20 298476  857 SMBA
4433.96Isaac Stackonis   Salida, CO1:47:38 316112  1073 RPM: Yeti
5443.33Hudson McNamee   Carbondale, CO1:49:20 322552  1099 ESC / Basalt Bike & Ski
6452.70Justin Noel   Boulder1:52:41 318254  802 SMBA
7462.07Evan Weinman   Steamboat Springs, CO1:52:58 294829  1066 SSWSC/Moots
8Sam Long   1:53:49  940 
9480.81Alec Schaffer   Steamboat Springs, CO2:02:40 296377  729 SSWSC/Moots
10490.18Connor Yates   Durango, CO2:05:01 352436  1083 Durango Devo
11Jake Kastner   2:16:28  1074 SBV Racing
12508.92Mitchell Goates   Colorado Springs, CO2:18:04 321910  964 Front Rangers COS
13Josh Gallen   2:22:19  657 Crested Butte High School Mountain Bike Team
14527.66Henry Larson   Durango, CO2:26:17 312378  848 Durango Devo
DNSW Grant Ellwood   Boulder, CODNS 298725  836 SMBA

Men - CAT 2 - 19-29

 Place Points NameCity, StateTime USAC #BibTeam
1540.00Samuel Johnson   Gunnison, CO1:52:12 346322  563 
2550.00Justin White   Aspen, CO1:54:01 347218  534 COMotion Sports/Yeti
3560.00Tyler Smith   Durango, CO2:01:29 347102  868 
4David Remington   2:03:14  1132 South Central Racing
5Robin Reed   2:13:56  549 Triyoga Endurance
6590.00Kyle Vistuba   Colorado Springs, CO2:14:24 207009  639 

Men - CAT 2 - 30-39

 Place Points NameCity, StateTime USAC #BibTeam
1497.60Steve Warfel   Denver, CO1:42:25 295059  502 Feedback Sports
2506.69Kellen Tanner   Littleton, CO1:47:25 337116  1096 Honey Stinger/Bicycle Outfitters
3Brian Mazzola   1:56:51  897 
4Zephyr Wrigley   2:01:08  825 The Natural Way Racing Team
5533.96Phillip Stevens   Leadville, CO2:03:33 34096  506 Colorado Custom Wood Floors
6Matt Kuusinen   2:04:23  613 
7John Roth   2:04:59  807 
8561.23Chris DeLauro   Mead, CO2:10:31 290100  949 Team Colorado Singletrack
DNSChristopher Taylor   Denver, CODNS 263943  927 COMotion Sports/Yeti
DNSFabio Wen   DNS  1095 

Men - CAT 2 - 40-49

 Place Points NameCity, StateTime USAC #BibTeam
1434.59kevin douglas   Edwards, CO1:46:31 333394  576 Kind Cyclist
2442.30Mark Nudelman   Thronton, CO1:51:10 320434  725 Club Treads
3450.01Douglas Robison   Lakewood, CO1:52:33 183223  919 Amicas/Absolute Bikes
4457.72Brett Hoopes   Golden, CO1:57:42 136437  784 
5465.43Michael Cook   Aspen, CO2:08:15 277690  957 The Next Level
6Charles Wilson   2:10:45  568 
7480.85roger villmow   Woodland Park, CO2:13:00 293337  953 LifeQuest
8488.56Peter VanBreemen   Palmer Lake, CO2:14:14 95485  1080 
9496.27Jon Bernhard   Buena Vista, CO2:20:12 224891  1075 Amica's Absolute Bikes
10503.98John Madden   Houston, TX2:31:41 308953  796 Bike Barn Houston
11Paul Harris   3:03:49  847 

Men - CAT 2 - 50-99

 Place Points NameCity, StateTime USAC #BibTeam
1Eric Long   1:51:06  939 Real D-Amgen
2492.57Erik Judson   Golden, CO1:51:54 47686  929 Innovative Office Solutions/International Christian Cycling Club
3Darrall Huber   2:12:02  671 
4527.75Jack Cotton   Colorado Springs, CO2:17:36 176272  834 Krause Sports Performance
5545.34Karl Semoneit   Folsom, CA2:26:05 164382  1068 Amica's Absolute Bikes
6562.93Rich Larson   Durango, CO2:32:25 302077  849 Durango Wheel Club
7580.52Tim Schaldach   Durango, CO2:37:37 352766  692 

Men - CAT 1 - 15-18

 Place Points NameCity, StateTime USAC #BibTeam
1293.90Howard Grotts   Durango, CO1:22:36 264839  559 Rocky Mountain Chocolate Factory/Devo Sweet Elite
2307.15Sepp Kuss   Durango1:29:23 276598  719 Durango Devo
3320.40Stephan Davoust   Durango, CO1:34:33 264191  946 Durango Devo
4333.65Levi Kurlander   Durango, CO1:34:36 292498  791 Durango Devo
5346.90Keegan Swirbul   Carbondale, CO1:38:15 294387  629 Basalt Bike and Ski
6360.15AliciaRose Pastore   Durango Co1:44:33 219217  560 Rocky Mountain Chocolate Factory/Devo Sweet Elite
7373.40Joe Christiansen   Lyons, CO1:44:51 295821  532 Redstone Cyclery
8386.65Garrett Lundberg   Salida, CO1:55:34 306809  1089 RPM/Yeti
9399.90Jeffrey Gay   Steamboat Springs, CO1:55:41 295981  774 SSWSC/Moots
10413.15Haakon Sigurslid   Durango, CO2:03:27 314928  735 Devo
11426.40Collin Francom   Durango, CO3:42:16 293595  1067 Durango DEVO

Men - CAT 1 - 19-29

 Place Points NameCity, StateTime USAC #BibTeam
1315.40Trevor Walz   Steamboat Springs, CO3:50:31 244662  872 Honey Stinger/Trek
2329.44Miguel Ramos   Lake Elsinore, CA3:53:44 182950  1072 Carver Brewing Cycling Team
3343.48Alex Pond   Steamboat Springs, CO4:00:50 325804  673 Steamboat Velo
4357.52Jason Haney   Fort Collins, CO4:05:03 250577  845 
5371.56Kyle Stamp   Breckenridge, CO4:07:26 185637  869 Summit Velo
6385.60William Lewis   Leadville, CO4:13:20 303235  1104 COMotion Sports/Yeti
7399.64Sam Chovan   Steamboat Springs, CO4:18:59 229072  933 Mafia Racing
8413.68Brendan Shafer   Durango, CO4:25:18 162645  1107 Durango DEVO
9427.72Drew Hogg   College Park, MD4:26:20 260582  1111 Mafia Racing
10441.76Michael Shea   Basalt, CO4:29:56 294673  812 ESC/Basalt Bike & Ski
11455.80Brandon Ewers   The Woodlands, TX4:30:21 231387  956 Energylab Nutrition Factory Team
12469.84Cameron Creger   Littleton, CO4:35:43 319494  1110 Club Treads.com
13483.88Scott Archer   Breckenridge, CO4:39:57 349822  948 
14497.92David Pfeiffer   Boulder, CO4:43:45 293439  905 Livetrainrace.com
15511.96Joshua Elston   Layton, UT4:54:20 265531  669 Ogden Cycling Education Foundation
16526.00Daniel Gerow   Grosse Pointe Farms, MI5:15:28 285633  962 Amicas / Absolute Bikes
17540.04Andrew Morrison   Denver, CO5:16:19 312844  1097 
18554.08Justin Hemmer   Grand Junction, CO5:44:58 311799  1070 LiveTrainRace.com
19568.12Zack Ward   Flagstaff, AZ6:04:40 275241  641 
DNSRobert Femmer   Nederland, CODNS 213737  593 

Men - CAT 1 - 30-39

 Place Points NameCity, StateTime USAC #BibTeam
1419.00John Klish   Grand Junction, CO3:49:11 193003  616 Mtn Pedaler / Honey Stinger / Julbo Eyewear
2424.83Scott Morris   Tucson, AZ3:50:54 99896  945 TopoFusion.com
3430.66Kurt Kropp   Denver, CO3:51:16 93553  685 Salvagetti/Mosaic
4436.49Casey Hill   Talent, OR3:55:52 234118  906 Mafia Racing Pabst-Felt
5442.32troy hiatt   Gunnison, CO3:57:04 287287  557 Alpine Orthopaedics
6448.15Jason Michalak   Crested Butte, CO4:00:25 279310  799 EPC
7453.98Nicholas Kempin   Crested Butte, CO4:03:57 18874  717 Alpine Orthopaedics
8459.81Matt Schiff   Fort Collins, CO4:07:33 212546  864 
9465.64Nathan Waldron   Aspen, CO4:10:21 149554  934 Honey Stinger - Trek
10471.47John Mallow   Grand Junction, CO4:11:09 353656  611 Ruby Canyon Cycles
11477.30Jason Wright   Aspen, CO4:13:15 227693  824 ESC/Basalt Bike & Ski
12483.13thomas konecny   Breckenridge, CO4:14:45 311585  1092 Summit Velo
13488.96Ian Anderson   Carbondale, CO4:22:19 303370  827 Honey Stinger/Trek
14494.79Ben Truitt   Lakewood, CO4:24:21 198770  600 COMotion Sports/Yeti
15500.62Ryan Schultz   Grand Junction, CO4:31:50 240082  809 Comotion Sports/Yeti Cycles
16506.45Chris Grobe   Denver, CO4:39:25 248807  575 Rocky Mountain Racing
17512.28Dan Dunbar   Boulder, CO4:42:31 235244  912 Feedback Sports
18518.11Doug Kast   Taos, NM4:45:51 168950  624 Team F.I.Taos
DNSJeremy Miller   Denver, CODNS 246071  516 COmotion Sports
DNSDamien Fraser   Eagle, CODNS 213484  913 

Men - CAT 1 - 40-49

 Place Points NameCity, StateTime USAC #BibTeam
1341.11Kenny Wehn   Durango, CO3:37:16 37549  955 No Tubes Race Team
2356.52Joel Mischke   Basalt, CO3:57:43 77727  661 Basalt Bike & Ski
3371.93Patrick West   Steamboat Springs, CO4:06:18 37788  874 Steamboat Velo/MOOTS
4387.34Glenn Walton   Nathrop, CO4:08:03 136296  922 Amicas/Absolute Bikes
5402.75James Bodine   Durango, CO4:10:10 43215  831 Durango Wheel Club
6418.16Rob Zillioux   Golden, CO4:20:21 39486  747 Golden Bike Shop
7433.57Brian Vitulli   Colorado Springs, CO4:24:03 36742  894 Southern Colorado Velo
8448.98Gaige Sippy   Durango, CO4:25:57 32817  813 Durango Wheel Club
9464.39Brian Nesbitt   Bailey, CO4:32:22 311671  855 CoMotion Sports/Yeti
10479.80Chad Sensenig   Golden, CO4:36:36 230603  961 COMotion Sports / Yeti
11495.21Michael Hayes   Carbondale, CO4:40:05 107669  780 Honey Stinger Trek
12510.62Bryan Kreitz   Austin Tx5:01:19 115405  914 Bicycle Sport Shop Mountain Bike Team
13526.03Mike Driver   Fruita, CO5:10:11 294288  911 Livetrainrace.com
DNSTed Compton   Durango, CODNS 56736  932 
DNSGreg Scanlan   Fort Collins, CODNS 246878  1102 Team Peleton - Specialized

Men - CAT 1 - 50-99

 Place Points NameCity, StateTime USAC #BibTeam
1383.89Charlie Eckart   Aspen, CO4:02:19 10427  767 ESC/Basalt Bike & Ski
2400.95Wade Wilderman   Fraser, CO4:25:12 38221  543 Rocky Mtn Roastery
3418.01Mike Armstrong   Basalt, CO4:36:33 59890  1094 ESC / Basalt Bike & Ski
4435.07Gary Thacker   Boulder, CO4:39:23 35266  638 Justins / Titus Mountain Bike Team
5452.13Dean Cahow   Evergreen, CO4:42:46 5802  566 Team Evergreen Racing
6469.19Mark Hogan   Snowmass Village, CO4:56:48 296205  594 
DNSLee Rivers   Lakewood, CODNS 30024  571 Green Mtn. Sports

Men - Pro

 Place Points NameCity, StateTime USAC #BibTeam
1203.70Mike West   Boulder, CO3:27:18 37786  143 Yeti Cycles
2211.45Brian Smith   Gunnison, CO3:28:00 33334  63 Alpine Orthopaedics
3219.20Tim Allen   Golden, CO3:31:46 161831  145 Niner-Ergon-Stans
4226.95Travis Scheefer   Gunnison, CO3:33:50 173190  20 Alpine Orthopaedics
5234.70Joshua Bezecny   Golden, CO3:34:25 114873  34 Trek Bike Store - Boulder
6242.45Peter Kalmes   Steamboat Springs, CO3:34:49 280780  85 HoneyStinger/Trek
7250.20Brad Bingham   Steamboat Springs, CO3:34:50 121632  41 Moots Cycles
8257.95Chris Baddick   Boulder3:37:12 284559  150 University of Bath
9265.70Ernie Watenpaugh   Telluride, CO3:38:32 37334  Peloton Cycles/Specialized/Honey Stinger
10273.45Colin Osborn   Carbondale, CO3:39:21 210855  37 Honey Stinger/TREK Off Road
11281.20Jay Henry   Avon, CO3:41:05 15853  70 Tokyo Joe's
12288.95Benjamin Moore   Boulder, CO3:42:34 228791  151 
13296.70Colton Andersen   Durango, CO3:42:44 301174  24 Rocky Mountain Chocolate Factory/Devo Sweet Elite
14304.45Jason Holbrook   Boulder, CO3:44:02 211236  11 Yeti/Jett Pro XC Team
15312.20Brian Riepe   Gunnison, CO3:44:05 40274  61 Mountain Flyer
16319.95Macky Franklin   Taos3:45:29 215111  50 Yeti / Sram
17327.70Barkley Robinson   Steamboat Springs, CO3:45:46 116613  62 Orange Peel
18335.45Nick Gould   Hollis Maine3:46:23 139267  52 Directory Plus/ Trek
19343.20Max Taam   Aspen, CO3:49:23 145040  87 Honey Stinger / Trek
20350.95Amar Mannina   Boulder, CO3:49:55 260872  43 Rocky Mounts/Izze
21358.70Anthony Iannacito   Denver, CO3:50:36 225551  137 Rocky Mountain Racing
22366.45Nick Truitt   Breckenridge, CO3:53:09 198767  22 Yeti/Jett Pro XC Team
23374.20Jordan Williford   Boulder, CO3:53:26 246497  Epic Endurance Cycling
24381.95Ezekiel Hersh   Frisco, CO3:57:02 260750  53 NoTubes
25389.70Greg Lewis   Durango, CO3:58:07 180506  148 Directory Plus/Trek
26397.45Lewis Gaffney   Angel Fire, NM3:59:41 247368  51 Team F.I.Taos
27405.20Len Zanni   Steamboat Springs, CO4:02:27 39400  74 Honey Stinger/ Trek
28412.95Chris Brandt   Carbondale, CO4:05:43 115063  75 Honey Stinger/Trek
29420.70Miles Venzara   Durango, CO4:05:59 138725  73 Directory Plus/Trek/Zia
30428.45Eric Emsky   Durango, CO4:08:18 218345  88 Durango Land and Home PB Trek Bicycles
31436.20Dylan Stucki   Durango, CO4:20:12 192016  128 Mafia Racing / Pabst / Felt
32443.95Brad Johnson   Flagstaff, AZ4:27:20 102931  28 Bicycle Ranch
DNSCampbell Levy   Centennial, CODNS 116610  10 Yeti/Jett Pro XC Team
DNSDoug Johnson   Colorado Springs, CODNS 17932  12 Bandwagon Racing
DNSBen Preston   Crested Butte, CODNS 215650  13 Brick Oven/CB Builders fueled by Avery
DNSBryan Dillon   Gunnison, CODNS 319354  68 Alpine Orthopaedics
DNSAdam Snyder   Westminster, MADNS 122912  82 Jamis Bikes
DNSNathan Brown   Boulder, CODNS 207512  149 Summit Velo

Women - Wildcat

 Place Points NameCity, StateTime USAC #BibTeam
1Katie Lindquist   4:38:39  851 Kent Eriksen
2Kristi Henne   5:03:14  1086 
3Michele Dewine   5:29:28  667 
4Sarah Gillis   5:30:13  580 Alpine Orthopedics
5568.56Sarah Germundson   Longmont, CO5:42:04 202567  775 
6Lauri Medina   5:49:17  555 
7Kathryn Watson   7:59:47  573 
8Molly Madden   7:59:48  591 
DNSRebecca Bale   DNS  550 
DNSHavilah Liederbach   DNS  625 
DNSSydney Fuller   DNS  683 Brick Oven/Crested Butte Builders
DNSSuzy French   DNS  706 
DNSMelissa Thomas   DNS  817 Tokyo Joes

Women - Singlespeed

 Place Points NameCity, StateTime USAC #BibTeam
1Jennifer Wilson   El Paso, TX5:08:40 113826  607 Team C-Man

Women - CAT 3 - 1-14

 Place Points NameCity, StateTime USAC #BibTeam
1450.84Ksenia Lepikhina   Boulder, CO1:00:05 296745  793 Tokyo Joes
2470.72Hailey Swirbul   Carbondale, CO1:01:25 294388  628 Basalt Bike and Ski
3Camryn Sippy   1:09:23  814 Durango Devo
4Alli Davis   1:16:26  899 
5Sierra Trout   1:17:14  665 Durango Devo
6550.24Meagan Collins   Dillon, CO1:20:02 321424  761 
7Ellen Campbell   1:23:53  622 Durango Devo
8Sparrow Skywalker   1:26:43  941 Team FITaos
DNSAmanda Schwartz   DNS  1045 Durango DEVO

Women - CAT 3 - 15-18

 Place Points NameCity, StateTime USAC #BibTeam
1Dominique Fenichell   Boulder, CO1:04:49 347490  1079 Tokyo Joe's
2McCauley Smith   Boulder, CO1:23:01 285844  1136 Boulder Junior Racing

Women - CAT 3 - 19-29

 Place Points NameCity, StateTime USAC #BibTeam
1Cori Kalmes   1:16:44  935 
2Molly Talbert   1:29:28  1085 
3590.00Molly Callahan   Tulsa, OK1:31:52 299767  758 Dirt Divas

Women - CAT 3 - 30-39

 Place Points NameCity, StateTime USAC #BibTeam
1Sarah McCullough   1:17:10  902 
2Sarah Francis   1:26:38  772 Ruby Canyon Cycles

Women - CAT 3 - 40-99

 Place Points NameCity, StateTime USAC #BibTeam
DNSAnna Giovinetto   DNS  565 
DNSKelly Stevens   DNS  1117 Colorado Custom Wood Floors

Women - CAT 2 - 15-18

 Place Points NameCity, StateTime USAC #BibTeam
1India Waller   2:07:39  823 Durango Devo
2Emily Schaldach   Durango, CO2:10:00 314034  691 Get Out!

Women - CAT 2 - 19-29

 Place Points NameCity, StateTime USAC #BibTeam
1Genevieve Kalmes   2:06:40  937 
2Lauren Waldron   2:18:24  640 Team Ajax Tavern
3Jennifer Sewall   2:27:25  950 
DNSAshlee Andersen   DNS  693 Dirt Divas

Women - CAT 2 - 30-39

 Place Points NameCity, StateTime USAC #BibTeam
1540.00Marina Lepikhina   Boulder, CO2:12:02 366090  794 
2Jessica D\'Amato   2:17:20  762 
3573.34Jennifer Hill   Erie, CO2:22:31 253682  783 Rivet SG
4Layne Shea   2:23:06  811 Basalt Bike & Ski
DNSKelli Scoville   DNS  1128 

Women - CAT 2 - 40-99

 Place Points NameCity, StateTime USAC #BibTeam
1Kelly Powell   2:01:40  587 
2Dana Shinn   2:07:14  867 Stan's NoTubes Race Team
3525.78Melissa Archey   Golden, CO2:21:48 352996  751 COMotion Sports / Yeti
4590.00Laura Nesbitt   Bailey, CO2:41:48 316930  856 Club Treads

Women - CAT 1 - 15-18

 Place Points NameCity, StateTime USAC #BibTeam
1Kaylee blevins   Durango, CO1:58:21 278472  697 Durango Devo
DNSLindsay Dye   Flagstaff, AZDNS 296092  529 Tokyo Joe's

Women - CAT 1 - 19-29

 Place Points NameCity, StateTime USAC #BibTeam
1469.21Sarah Sturm   Durango, CO4:39:46 275320  1055 Durang Land and Homes
2499.41Katie Sodergren   Breckenridge, CO4:50:08 284503  736 COmotion Sports / Yeti
3529.61amy beisel   Gunnison, CO4:52:41 321990  615 Alpine Orthopaedics
4559.81Jenny Gilkerson   Denver, CO5:12:26 347186  776 Comotion
5590.01Abigail Mickey   Aspen, CO6:19:47 326204  1012 Mafia Racing / Pabst / Felt
DNSNathalie Krantz   Flagstaff, AZDNS 267760  660 Get Out! Durango

Women - CAT 1 - 30-39

 Place Points NameCity, StateTime USAC #BibTeam
1463.29Rachel Friedman   Nathrop, CO5:02:09 198760  840 Amicas-Absolute
2505.53Willa Johnson   Boulder, CO5:18:16 244213  1076 Rivet Sports Garage
3547.77Tina Kempin   Crested Butte Co5:19:03 161363  718 Brick Oven/ Crested Butte Builders
4590.01Maura McGovern   Denver, CO5:25:31 191585  1037 Rocky Mountain Racing
DNSLauren Ziedonis   Aspen, CODNS 248319  540 Hub of Aspen
DNSTamara Donelson   Edwards, CODNS 284209  598 Ells Angels

Women - CAT 1 - 40-99

 Place Points NameCity, StateTime USAC #BibTeam
1345.78Anne Gonzales   Aspen, CO4:37:58 13606  843 ESC/ Basalt Bike & Ski
2386.57N/A   Colorado Springs, CO5:15:29 147306  1047 Kenwood Racing
3427.36Kathryn Judson   Arvada, CO5:24:49 47161  928 Innovative Office Solutions/International Christian Cycling Club
4468.15Lynne McDade   Lakewood, CO5:26:43 320830  519 CoMotion Sports/YETI
5508.94Terry Stimac   Avon, CO5:40:44 321788  739 Team High Maintenance

Women - Pro

 Place Points NameCity, StateTime USAC #BibTeam
1193.66Gretchen Reeves   Avon, CO3:59:52 29423  84 Tokyo Joes
2216.05Jennifer Smith   Gunnison, CO4:00:54 173838  64 Alpine Orthopaedics/SRAM
3238.44Teal Stetson-Lee   Reno, NV4:14:49 252205  25 Rocky Mountain Chocolate Factory/Devo Sweet Elite
4260.83Sage Wilderman   Fraser, CO4:28:11 199903  26 Rocky Mountain Chocolate Factory/Devo Sweet Elite
5283.22Jennifer Gersbach   Durango, CO4:35:16 191239  69 Honey Stinger/Trek
6305.61Heidi Rentz   Moab, UT4:46:18 252832  47 Vermont Bike Tours
7328.00Sonya Bugbee   Lakewood, CO4:50:38 228971  67 Epic Endurance Racing
8350.39Anna Fortner   Carpinteria, CA4:51:34 280797  32 The T.E.A.M.
9372.78Rebecca Gross   Golden, CO4:59:27 176014  78 Velo Bella
10395.17Sarah Rawley   Dillon, CO5:00:40 234957  21 Yeti Beti
11417.56Sarka Ruzickova   Winter Park, CO5:09:08 261623  72 Epic Endurance Cycling Team
DNSEllen Patten   Boulder, CODNS 230369  40 Tokyo Joes

Report missing or incorrect license numbers

Volkswagen
SpyUSACDFShimanoBonk BreakerSierra Nevada
UCI USA Cycling is the official governing body for all disciplines of competitive cycling in the United States. The 501c3, membership-based organization aims both to achieve sustained success in international cycling competition and to grow competitive cycling in America while delivering an exceptional customer experience.
View Children's Online Privacy Protection Policy
US Olympic Committee